header
chart

Reported and forecast weather at local airports

Important: not to be used for flight planning purposes.


EGBB METAR fetched   Monday 16th Sep @ 11:58:31
EGBB 161050Z 36006KT 4000 BR BKN004 14/13 Q1023

EGCC METAR fetched   Monday 16th Sep @ 11:58:25
EGCC 161050Z AUTO VRB03KT 9999 SCT015 SCT037 15/11 Q1023

EGGP METAR fetched   Monday 16th Sep @ 11:58:26
EGGP 161050Z 36005KT 9999 FEW022 SCT034 15/11 Q1023

EGNH METAR fetched   Monday 16th Sep @ 11:58:28
EGNH 161050Z 35006KT 280V060 9999 FEW030 15/09 Q1023

EGNM METAR fetched   Monday 16th Sep @ 11:58:30
EGNM 161050Z 28006KT 230V320 9999 SCT031 14/07 Q1022

EGOV METAR fetched   Monday 16th Sep @ 11:58:33
EGOV 161050Z 03011KT 9999 FEW018 BKN025 15/11 Q1023 BLU NOSIG RMK BLU BLU


EGBB TAF fetched   Monday 16th Sep @ 11:58:32
TAF TAF EGBB 160500Z 1606/1706 26005KT 9999 SCT030 TEMPO 1606/1616 5000 -RADZ BKN007 PROB30 TEMPO 1606/1614 4000 DZ BR BKN004

EGCC TAF fetched   Monday 16th Sep @ 11:58:26
TAF AMD EGCC 161039Z 1610/1712 32004KT 9999 BKN013 BECMG 1610/1613 SCT020 PROB30 TEMPO 1703/1709 8000

EGGP TAF fetched   Monday 16th Sep @ 11:58:27
TAF TAF EGGP 160500Z 1606/1706 32004KT 9999 BKN025 TEMPO 1606/1609 4000 RADZ BKN006 PROB30 TEMPO 1606/1608 BKN004 BECMG 1609/1612 CAVOK

EGNM TAF fetched   Monday 16th Sep @ 11:58:30
TAF TAF EGNM 160502Z 1606/1706 34003KT 9999 SCT030

EGOV TAF fetched   Monday 16th Sep @ 11:58:33
TAF TAF EGOV 190525Z 1906/1918 04008KT CAVOK PROB30 TEMPO 1906/1912 6000 SHRA TEMPO 1912/1915 4000 +SHRA SCT020 BKN030CB PROB30 TEMPO 1913/1915 VRBG20G30KT 2500 TSGR BKN012

Every effort is made to ensure that this information is free from errors but as it is provided by a third party the accuracy of the reports cannot be guaranteed.